Time;durP1;ratioP1;P1;durP2;ratioP2;P2;SDS_P1;SDS_P2;PMS_P1;PMS_P2;Temp;Humidity;BMP_temperature;BMP_pressure;BME280_temperature;BME280_humidity;BME280_pressure;Samples;Min_cycle;Max_cycle;Signal;HPM_P1;HPM_P2
2021/12/23 00:00:55;;;;;;;16.77;8.55;;;;;;;-2.97;100.00;101762.56;5050574;28;20386;-71
2021/12/23 00:03:21;;;;;;;20.70;8.90;;;;;;;-2.93;100.00;101771.94;5043884;28;20512;-71
2021/12/23 00:05:47;;;;;;;16.35;9.75;;;;;;;-2.89;100.00;101783.03;5041202;28;20061;-71
2021/12/23 00:08:12;;;;;;;12.32;7.85;;;;;;;-2.99;100.00;101754.00;5039120;28;20133;-71
2021/12/23 00:10:38;;;;;;;11.10;7.57;;;;;;;-2.84;100.00;101764.81;5042572;28;20075;-71
2021/12/23 00:13:03;;;;;;;17.67;8.52;;;;;;;-2.85;100.00;101765.69;5043795;28;20029;-71
2021/12/23 00:16:18;;;;;;;18.17;10.32;;;;;;;-2.94;100.00;101743.53;5044561;28;20082;-71
2021/12/23 00:18:40;;;;;;;18.13;8.75;;;;;;;-2.86;100.00;101761.44;5038390;28;20072;-71
2021/12/23 00:23:49;;;;;;;15.20;8.55;;;;;;;-2.86;100.00;101761.44;5044191;28;20047;-70
2021/12/23 00:26:15;;;;;;;15.38;8.82;;;;;;;-2.91;100.00;101731.41;5047005;28;20041;-71
2021/12/23 00:28:41;;;;;;;16.13;9.02;;;;;;;-2.88;100.00;101724.47;5038819;28;20032;-71
2021/12/23 00:31:06;;;;;;;15.73;8.50;;;;;;;-2.82;100.00;101732.03;5054200;28;20095;-72
2021/12/23 00:33:35;;;;;;;14.80;9.30;;;;;;;-2.81;100.00;101723.38;5049891;28;20152;-71
2021/12/23 00:36:01;;;;;;;19.88;8.95;;;;;;;-2.87;100.00;101702.88;5037499;28;20037;-71
2021/12/23 00:38:34;;;;;;;15.18;8.57;;;;;;;-2.76;100.00;101713.78;5039570;28;20373;-71
2021/12/23 00:41:02;;;;;;;11.75;8.07;;;;;;;-2.72;100.00;101715.41;5038818;28;20032;-71
2021/12/23 00:43:28;;;;;;;12.30;7.63;;;;;;;-2.69;100.00;101712.72;5047109;28;20087;-72
2021/12/23 00:45:54;;;;;;;13.15;7.65;;;;;;;-2.70;100.00;101703.25;5041142;28;20041;-71
2021/12/23 00:48:19;;;;;;;13.88;8.35;;;;;;;-2.69;100.00;101707.56;5041717;28;20051;-71
2021/12/23 00:50:46;;;;;;;17.60;8.93;;;;;;;-2.84;100.00;101677.00;5048142;28;20033;-71
2021/12/23 00:53:16;;;;;;;17.70;8.25;;;;;;;-2.67;100.00;101702.34;5042131;28;20127;-71
2021/12/23 00:55:42;;;;;;;17.58;9.27;;;;;;;-2.64;100.00;101690.16;5040866;28;20099;-71
2021/12/23 00:58:07;;;;;;;13.80;8.15;;;;;;;-2.67;100.00;101682.53;5038456;28;20428;-71
2021/12/23 01:00:33;;;;;;;26.33;11.13;;;;;;;-2.64;100.00;101690.16;5040870;28;20043;-71
2021/12/23 01:03:00;;;;;;;14.02;7.07;;;;;;;-2.73;100.00;101677.53;5046170;28;20037;-71
2021/12/23 01:05:26;;;;;;;15.68;8.13;;;;;;;-2.57;100.00;101693.41;5043401;28;20025;-71
2021/12/23 01:07:52;;;;;;;14.60;9.27;;;;;;;-2.55;100.00;101683.88;5043605;28;20110;-71
2021/12/23 01:10:18;;;;;;;15.23;7.72;;;;;;;-2.55;100.00;101689.94;5043305;28;20061;-71
2021/12/23 01:12:57;;;;;;;13.93;8.45;;;;;;;-2.56;100.00;101671.88;5037634;28;20029;-71
2021/12/23 01:17:55;;;;;;;20.52;9.65;;;;;;;-2.46;100.00;101693.97;5047941;28;20029;-71
2021/12/23 01:20:30;;;;;;;15.23;8.95;;;;;;;-2.43;100.00;101704.22;5043481;28;20033;-71
2021/12/23 01:23:02;;;;;;;14.23;8.68;;;;;;;-2.51;100.00;101696.66;5037407;28;20019;-71
2021/12/23 01:25:28;;;;;;;18.38;9.93;;;;;;;-2.45;100.00;101716.34;5043439;28;20051;-71
2021/12/23 01:27:54;;;;;;;14.93;7.53;;;;;;;-2.40;100.00;101716.19;5042292;28;20078;-71
2021/12/23 01:30:21;;;;;;;14.15;8.32;;;;;;;-2.36;100.00;101716.06;5027914;28;20120;-71
2021/12/23 01:32:49;;;;;;;15.45;9.52;;;;;;;-2.38;100.00;101697.16;5052452;28;20034;-71
2021/12/23 01:35:16;;;;;;;16.65;8.80;;;;;;;-2.44;100.00;101688.75;5037742;28;20034;-71
2021/12/23 01:37:42;;;;;;;18.52;10.13;;;;;;;-2.43;100.00;101669.78;5037446;28;20029;-71
2021/12/23 01:40:09;;;;;;;16.52;9.27;;;;;;;-2.42;100.00;101663.69;5042427;28;20118;-71
2021/12/23 01:42:35;;;;;;;18.20;9.30;;;;;;;-2.41;100.00;101665.41;5047205;28;20120;-71
2021/12/23 01:45:01;;;;;;;18.73;9.77;;;;;;;-2.50;100.00;101651.84;5037426;28;20112;-71
2021/12/23 01:47:26;;;;;;;22.50;9.95;;;;;;;-2.62;100.00;101616.03;5035904;28;20064;-71
2021/12/23 01:49:52;;;;;;;17.38;8.57;;;;;;;-2.53;100.00;101641.59;5047504;28;20065;-71
2021/12/23 01:52:17;;;;;;;16.55;9.20;;;;;;;-2.69;100.00;101597.28;5039576;28;20477;-71
2021/12/23 01:54:44;;;;;;;14.23;9.20;;;;;;;-2.50;100.00;101609.66;5038022;28;20032;-71
2021/12/23 01:57:10;;;;;;;21.38;8.65;;;;;;;-2.51;100.00;101608.78;5044825;28;20037;-71
2021/12/23 01:59:35;;;;;;;13.60;7.78;;;;;;;-2.66;100.00;101570.50;5056807;28;20029;-72
2021/12/23 02:02:01;;;;;;;15.63;7.93;;;;;;;-2.59;100.00;101564.28;5036316;28;20043;-72
2021/12/23 02:04:26;;;;;;;15.52;8.48;;;;;;;-2.47;100.00;101563.03;5039907;28;20052;-72
2021/12/23 02:06:52;;;;;;;11.93;8.07;;;;;;;-2.47;100.00;101557.00;5043076;28;20064;-72
2021/12/23 02:09:18;;;;;;;12.88;7.53;;;;;;;-2.50;100.00;101532.94;5038228;28;20033;-72
2021/12/23 02:11:45;;;;;;;19.15;10.73;;;;;;;-2.52;100.00;101498.56;5039740;28;20488;-72
2021/12/23 02:14:10;;;;;;;14.65;7.60;;;;;;;-2.54;100.00;101473.66;5043897;28;20420;-72
2021/12/23 02:16:36;;;;;;;14.30;7.22;;;;;;;-2.55;100.00;101446.09;5044987;28;20028;-71
2021/12/23 02:19:13;;;;;;;16.55;7.00;;;;;;;-2.55;100.00;101421.13;5040755;28;20119;-71
2021/12/23 02:21:41;;;;;;;19.55;10.32;;;;;;;-2.60;100.00;101399.75;5048115;28;20037;-71
2021/12/23 02:24:07;;;;;;;14.00;6.75;;;;;;;-2.52;100.00;101410.69;5044956;28;20029;-71
2021/12/23 02:26:37;;;;;;;12.02;7.50;;;;;;;-2.59;100.00;101378.19;5041401;28;20044;-71
2021/12/23 02:29:02;;;;;;;14.70;8.95;;;;;;;-2.51;100.00;101388.25;5037656;28;20048;-71
2021/12/23 02:31:27;;;;;;;13.85;8.95;;;;;;;-2.44;100.00;101388.88;5054979;28;20206;-71
2021/12/23 02:33:53;;;;;;;11.98;7.68;;;;;;;-2.42;100.00;101397.44;5047974;28;20044;-71
2021/12/23 02:36:18;;;;;;;22.02;12.57;;;;;;;-2.40;100.00;101506.78;5045689;28;20108;-71
2021/12/23 02:38:43;;;;;;;15.32;9.45;;;;;;;-2.26;100.00;101551.16;5044596;28;20064;-71
2021/12/23 02:41:09;;;;;;;17.13;11.15;;;;;;;-2.22;100.00;101557.91;5050959;28;20424;-72
2021/12/23 02:43:36;;;;;;;23.58;13.52;;;;;;;-2.27;100.00;101523.59;5044444;28;20037;-71
2021/12/23 02:46:02;;;;;;;19.45;9.93;;;;;;;-2.15;100.00;101468.03;5047113;28;20126;-72
2021/12/23 02:48:36;;;;;;;17.90;9.68;;;;;;;-2.11;100.00;101498.06;5047513;28;20502;-71
2021/12/23 02:51:05;;;;;;;17.83;11.43;;;;;;;-2.09;100.00;101496.25;5041935;28;20055;-72
2021/12/23 02:53:31;;;;;;;13.52;8.10;;;;;;;-2.01;100.00;101514.09;5040915;28;20549;-72
2021/12/23 02:55:58;;;;;;;17.50;10.38;;;;;;;-1.96;100.00;101509.59;5039421;28;20023;-72
2021/12/23 02:58:24;;;;;;;19.13;9.32;;;;;;;-1.96;100.00;101494.09;5048403;28;20616;-72
2021/12/23 03:00:51;;;;;;;17.80;9.68;;;;;;;-1.95;100.00;101482.84;5049183;28;20071;-72
2021/12/23 03:03:17;;;;;;;15.32;10.35;;;;;;;-1.99;100.00;101479.53;5046706;28;20029;-72
2021/12/23 03:05:51;;;;;;;20.30;11.57;;;;;;;-1.99;100.00;101481.28;5045387;28;20029;-72
2021/12/23 03:08:36;;;;;;;17.33;10.82;;;;;;;-2.05;100.00;101465.97;5041814;28;20045;-72
2021/12/23 03:11:06;;;;;;;17.08;10.60;;;;;;;-2.09;100.00;101441.94;5038848;28;20037;-71
2021/12/23 03:13:33;;;;;;;14.82;8.75;;;;;;;-2.08;100.00;101441.06;5041432;28;20009;-72
2021/12/23 03:15:59;;;;;;;19.23;10.13;;;;;;;-2.05;100.00;101429.75;5046403;28;20051;-72
2021/12/23 03:18:25;;;;;;;20.85;10.75;;;;;;;-2.09;100.00;101431.59;5043829;28;20481;-72
2021/12/23 03:20:51;;;;;;;21.30;12.05;;;;;;;-2.12;100.00;101424.78;5048022;28;20021;-72
2021/12/23 03:23:17;;;;;;;21.15;11.95;;;;;;;-2.27;100.00;101400.31;5057651;28;20022;-71
2021/12/23 03:25:42;;;;;;;20.75;11.25;;;;;;;-2.13;100.00;101422.28;5041752;28;20122;-72
2021/12/23 03:28:08;;;;;;;14.85;8.88;;;;;;;-2.28;100.00;101382.28;5039947;28;20033;-72
2021/12/23 03:30:33;;;;;;;19.48;10.52;;;;;;;-2.15;100.00;101400.81;5048970;28;20041;-72
2021/12/23 03:32:58;;;;;;;15.10;8.60;;;;;;;-2.09;100.00;101406.59;5040905;28;20480;-72
2021/12/23 03:35:24;;;;;;;19.23;11.25;;;;;;;-2.08;100.00;101384.16;5049340;28;20476;-72
2021/12/23 03:37:49;;;;;;;19.58;11.75;;;;;;;-2.04;100.00;101384.91;5047498;28;20033;-72
2021/12/23 03:40:15;;;;;;;14.25;8.10;;;;;;;-2.09;100.00;101377.28;5043231;28;20036;-72
2021/12/23 03:42:40;;;;;;;17.20;9.63;;;;;;;-2.10;100.00;101376.44;5048737;28;20032;-72
2021/12/23 03:45:08;;;;;;;21.20;9.88;;;;;;;-2.05;100.00;101383.19;5039666;28;20110;-72
2021/12/23 03:47:36;;;;;;;13.68;8.48;;;;;;;-2.03;100.00;101377.06;5047471;28;20405;-72
2021/12/23 03:50:03;;;;;;;19.73;10.30;;;;;;;-2.22;100.00;101329.50;5042441;28;20024;-72
2021/12/23 03:52:29;;;;;;;15.90;9.63;;;;;;;-2.26;100.00;101318.44;5046901;28;20099;-72
2021/12/23 03:54:54;;;;;;;17.92;10.63;;;;;;;-2.11;100.00;101338.56;5044066;28;20030;-72
2021/12/23 03:57:19;;;;;;;17.58;10.48;;;;;;;-2.15;100.00;101337.00;5041602;28;20033;-72
2021/12/23 03:59:45;;;;;;;18.73;10.57;;;;;;;-2.16;100.00;101344.78;5049403;28;20029;-72
2021/12/23 04:02:10;;;;;;;15.80;8.70;;;;;;;-2.28;100.00;101307.31;5056608;28;20045;-72
2021/12/23 04:04:36;;;;;;;15.32;9.80;;;;;;;-2.12;100.00;101331.69;5036770;28;20382;-72
2021/12/23 04:07:02;;;;;;;15.95;9.60;;;;;;;-2.09;100.00;101348.84;5047283;28;20498;-72
2021/12/23 04:09:27;;;;;;;15.90;8.82;;;;;;;-2.08;100.00;101358.28;5044400;28;20041;-72
2021/12/23 04:11:53;;;;;;;17.15;9.85;;;;;;;-2.12;100.00;101331.69;5042962;28;20037;-72
2021/12/23 04:14:18;;;;;;;14.57;7.95;;;;;;;-2.15;100.00;101329.22;5041335;28;20412;-72
2021/12/23 04:16:44;;;;;;;18.17;10.48;;;;;;;-2.07;100.00;101339.28;5048669;28;20029;-72
2021/12/23 04:19:11;;;;;;;16.83;9.02;;;;;;;-2.21;100.00;101316.53;5039041;28;20034;-72
2021/12/23 04:21:38;;;;;;;19.45;9.38;;;;;;;-2.09;100.00;101347.13;5042072;28;20389;-72
2021/12/23 04:24:04;;;;;;;20.08;10.60;;;;;;;-2.07;100.00;101355.66;5043347;28;20020;-72
2021/12/23 04:26:29;;;;;;;15.55;10.40;;;;;;;-2.04;100.00;101351.28;5049107;28;20040;-72
2021/12/23 04:28:55;;;;;;;18.55;10.75;;;;;;;-2.01;100.00;101358.91;5041235;28;20074;-72
2021/12/23 04:31:23;;;;;;;20.40;10.68;;;;;;;-2.08;100.00;101345.38;5042403;28;20037;-72
2021/12/23 04:33:49;;;;;;;15.45;8.13;;;;;;;-2.04;100.00;101328.00;5044960;28;20041;-74
2021/12/23 04:36:15;;;;;;;20.00;10.05;;;;;;;-2.19;100.00;101293.19;5044158;28;20052;-72
2021/12/23 04:38:42;;;;;;;13.90;7.93;;;;;;;-2.04;100.00;101321.06;5040441;28;20056;-72
2021/12/23 04:41:08;;;;;;;16.80;10.27;;;;;;;-2.06;100.00;101320.28;5034357;28;20034;-72
2021/12/23 04:43:34;;;;;;;18.70;10.23;;;;;;;-2.16;100.00;101293.91;5040953;28;20041;-72
2021/12/23 04:46:00;;;;;;;12.75;7.97;;;;;;;-2.04;100.00;101299.53;5007145;28;20029;-72
2021/12/23 04:48:26;;;;;;;16.85;9.50;;;;;;;-2.03;100.00;101293.47;5039518;28;20041;-72
2021/12/23 04:50:51;;;;;;;18.38;10.55;;;;;;;-2.07;100.00;101287.53;5041638;28;20104;-73
2021/12/23 04:53:17;;;;;;;16.85;9.73;;;;;;;-2.07;100.00;101288.41;5041055;28;20090;-72
2021/12/23 04:55:42;;;;;;;20.15;9.93;;;;;;;-2.02;100.00;101290.81;5038061;28;20037;-72
2021/12/23 04:58:08;;;;;;;17.48;9.65;;;;;;;-2.02;100.00;101283.06;5043989;28;20048;-72
2021/12/23 05:00:34;;;;;;;16.38;9.43;;;;;;;-2.08;100.00;101258.25;5040801;28;21141;-72
2021/12/23 05:02:59;;;;;;;24.00;12.52;;;;;;;-2.01;100.00;101268.38;5040885;28;20060;-72
2021/12/23 05:05:24;;;;;;;21.13;11.02;;;;;;;-1.97;100.00;101272.53;5044281;28;20087;-72
2021/12/23 05:07:50;;;;;;;16.35;9.32;;;;;;;-1.94;100.00;101285.34;5039634;28;20129;-72
2021/12/23 05:10:16;;;;;;;18.77;9.85;;;;;;;-2.03;100.00;101270.19;5049135;28;20024;-72
2021/12/23 05:12:44;;;;;;;13.98;9.43;;;;;;;-1.90;100.00;101286.91;5041677;28;20394;-72
2021/12/23 05:15:12;;;;;;;21.38;10.05;;;;;;;-2.00;100.00;101262.28;5042796;28;20025;-72
2021/12/23 05:17:37;;;;;;;21.35;11.88;;;;;;;-1.86;100.00;101278.13;5041594;28;20112;-72
2021/12/23 05:20:06;;;;;;;12.73;7.88;;;;;;;-1.83;100.00;101272.81;5040851;28;20499;-72
2021/12/23 05:22:32;;;;;;;19.33;11.05;;;;;;;-1.91;100.00;101262.78;5046583;28;20082;-72
2021/12/23 05:24:57;;;;;;;17.35;8.73;;;;;;;-1.83;100.00;101246.94;5037314;28;20383;-72
2021/12/23 05:27:22;;;;;;;14.65;8.15;;;;;;;-1.76;99.96;101255.34;5035005;28;20025;-72
2021/12/23 05:29:48;;;;;;;19.95;11.18;;;;;;;-1.73;100.00;101263.81;5041937;28;20068;-72
2021/12/23 05:32:13;;;;;;;15.98;8.95;;;;;;;-1.71;99.84;101256.81;5045591;28;20370;-73
2021/12/23 05:34:38;;;;;;;15.13;8.43;;;;;;;-1.68;99.50;101261.03;5045317;28;20040;-72
2021/12/23 05:37:04;;;;;;;15.27;9.63;;;;;;;-1.73;99.63;101252.63;5040006;28;20536;-72
2021/12/23 05:39:29;;;;;;;18.35;9.77;;;;;;;-1.78;99.67;101252.81;5040600;28;20024;-72
2021/12/23 05:41:54;;;;;;;16.77;7.78;;;;;;;-1.70;99.58;101261.13;5037062;28;20033;-72
2021/12/23 05:44:20;;;;;;;15.82;8.18;;;;;;;-1.54;99.20;101292.41;5045127;28;20452;-72
2021/12/23 05:46:45;;;;;;;11.45;8.15;;;;;;;-1.51;98.90;101278.47;5059062;28;20045;-72
2021/12/23 05:49:11;;;;;;;15.60;9.38;;;;;;;-1.53;98.66;101264.75;5026375;28;20462;-72
2021/12/23 05:51:36;;;;;;;18.98;9.18;;;;;;;-1.68;98.38;101225.66;5044882;28;20492;-72
2021/12/23 05:54:02;;;;;;;16.63;9.50;;;;;;;-1.64;99.19;101230.72;5033323;28;20128;-72
2021/12/23 05:56:27;;;;;;;19.08;11.13;;;;;;;-1.77;99.11;101222.59;5043521;28;20048;-72
2021/12/23 05:58:53;;;;;;;16.00;8.95;;;;;;;-1.80;99.08;101231.31;5030162;28;20029;-72
2021/12/23 06:01:18;;;;;;;16.05;8.68;;;;;;;-1.67;98.77;101242.88;5057171;28;20066;-72
2021/12/23 06:03:46;;;;;;;18.35;9.70;;;;;;;-1.63;99.14;101224.59;5046781;28;20029;-72
2021/12/23 06:06:13;;;;;;;17.48;10.05;;;;;;;-1.86;99.48;101187.59;5044825;28;20044;-72
2021/12/23 06:08:39;;;;;;;17.45;9.23;;;;;;;-1.70;99.67;101192.97;5045221;28;20394;-72
2021/12/23 06:11:05;;;;;;;19.40;9.75;;;;;;;-1.82;99.27;101155.50;5046926;28;20029;-73
2021/12/23 06:13:30;;;;;;;17.15;9.20;;;;;;;-1.68;99.33;101160.97;5038594;28;20042;-73
2021/12/23 06:15:56;;;;;;;16.05;9.65;;;;;;;-1.63;99.08;101173.72;5046680;28;20027;-72
2021/12/23 06:18:21;;;;;;;15.57;8.23;;;;;;;-1.61;98.80;101143.44;5043633;28;20040;-73
2021/12/23 06:20:47;;;;;;;19.52;10.80;;;;;;;-1.59;98.69;101145.94;5040729;28;20087;-73
2021/12/23 06:23:12;;;;;;;16.70;9.27;;;;;;;-1.69;98.85;101123.03;5040242;28;20501;-72
2021/12/23 06:25:38;;;;;;;18.25;11.27;;;;;;;-1.77;99.25;101108.75;5044404;28;20033;-72
2021/12/23 06:28:03;;;;;;;14.07;7.63;;;;;;;-1.88;99.58;101081.56;5043376;28;20037;-72
2021/12/23 06:30:29;;;;;;;22.83;10.18;;;;;;;-1.68;100.00;101129.03;5042873;28;20045;-72
2021/12/23 06:32:55;;;;;;;22.80;10.77;;;;;;;-1.67;100.00;101126.41;5042153;28;20155;-72
2021/12/23 06:35:24;;;;;;;16.88;9.13;;;;;;;-1.68;100.00;101119.56;5057129;28;20043;-73
2021/12/23 06:37:50;;;;;;;18.48;8.68;;;;;;;-1.62;99.91;101118.44;5044127;28;20029;-72
2021/12/23 06:40:15;;;;;;;17.40;10.00;;;;;;;-1.70;99.70;101095.50;5041986;28;20036;-72
2021/12/23 06:42:41;;;;;;;10.40;5.93;;;;;;;-1.64;98.96;101085.78;5042367;28;20100;-74
2021/12/23 06:45:07;;;;;;;14.45;8.85;;;;;;;-1.52;98.42;101103.38;5040439;28;20060;-72
2021/12/23 06:47:36;;;;;;;18.40;9.52;;;;;;;-1.51;98.16;101089.50;5049521;28;20079;-72
2021/12/23 06:50:04;;;;;;;15.55;8.95;;;;;;;-1.66;97.73;101045.25;5046095;28;20504;-72
2021/12/23 06:52:31;;;;;;;17.42;8.55;;;;;;;-1.53;97.40;101075.78;5038321;28;20037;-72
2021/12/23 06:54:57;;;;;;;16.48;9.68;;;;;;;-1.54;97.44;101058.59;5040935;28;20125;-72
2021/12/23 06:57:25;;;;;;;15.27;8.40;;;;;;;-1.56;97.27;101061.25;5038543;28;20041;-72
2021/12/23 06:59:50;;;;;;;18.15;10.10;;;;;;;-1.56;97.25;101068.19;5043218;28;20065;-72
2021/12/23 07:02:16;;;;;;;20.25;9.48;;;;;;;-1.55;98.44;101067.25;5042619;28;20053;-72
2021/12/23 07:04:43;;;;;;;19.15;8.95;;;;;;;-1.52;98.47;101061.97;5050082;28;20501;-74
2021/12/23 07:07:10;;;;;;;15.88;9.13;;;;;;;-1.48;98.46;101073.84;5041431;28;20430;-72
2021/12/23 07:09:42;;;;;;;19.02;10.65;;;;;;;-1.47;98.81;101067.75;5039645;28;20029;-73
2021/12/23 07:12:09;;;;;;;16.05;9.25;;;;;;;-1.46;98.20;101077.19;5044942;28;20064;-73
2021/12/23 07:14:36;;;;;;;18.55;9.27;;;;;;;-1.39;98.50;101068.28;5043967;28;20059;-73
2021/12/23 07:17:01;;;;;;;18.35;9.48;;;;;;;-1.35;97.79;101082.78;5038316;28;20032;-72
2021/12/23 07:19:27;;;;;;;20.17;8.73;;;;;;;-1.36;97.73;101070.72;5042103;28;20190;-74
2021/12/23 07:21:53;;;;;;;15.55;9.20;;;;;;;-1.25;97.46;101068.47;5043418;28;20036;-73
2021/12/23 07:24:18;;;;;;;13.82;8.65;;;;;;;-1.19;97.04;101077.75;5034735;28;20489;-72
2021/12/23 07:26:44;;;;;;;16.30;9.20;;;;;;;-1.17;96.48;101064.72;5038204;28;20032;-72
2021/12/23 07:29:09;;;;;;;19.40;10.50;;;;;;;-1.27;96.06;101034.03;5043860;28;20033;-72
2021/12/23 07:31:34;;;;;;;15.10;9.55;;;;;;;-1.16;96.42;101053.44;5041377;28;20037;-74
2021/12/23 07:34:00;;;;;;;20.13;10.00;;;;;;;-1.17;96.45;101037.06;5043552;28;20503;-72
2021/12/23 07:36:27;;;;;;;19.55;10.07;;;;;;;-1.17;96.24;101044.84;5053158;28;20119;-72
2021/12/23 07:38:57;;;;;;;23.77;10.95;;;;;;;-1.27;96.31;101026.28;5042969;28;20047;-72
2021/12/23 07:41:26;;;;;;;17.02;9.50;;;;;;;-1.17;95.96;101041.41;5036724;28;20059;-72
2021/12/23 07:43:59;;;;;;;26.17;11.30;;;;;;;-1.12;96.21;101040.28;5040359;28;20685;-73
2021/12/23 07:46:27;;;;;;;23.25;11.27;;;;;;;-1.05;95.89;101059.81;5043696;28;20033;-73
2021/12/23 07:48:52;;;;;;;23.13;12.40;;;;;;;-0.96;95.30;101050.75;5035328;28;20456;-73
2021/12/23 07:51:19;;;;;;;19.83;11.00;;;;;;;-0.90;95.03;101054.84;5039666;28;20060;-73
2021/12/23 07:53:44;;;;;;;20.52;10.50;;;;;;;-0.99;94.99;101032.78;5040815;28;20116;-73
2021/12/23 07:56:10;;;;;;;20.80;10.43;;;;;;;-0.87;94.92;101058.13;5044457;28;20124;-73
2021/12/23 07:58:35;;;;;;;20.63;11.13;;;;;;;-0.85;94.70;101066.69;5038249;28;20029;-73
2021/12/23 08:01:00;;;;;;;16.77;10.30;;;;;;;-0.83;94.74;101061.41;5042523;28;20040;-73
2021/12/23 08:03:26;;;;;;;17.38;10.60;;;;;;;-0.90;94.50;101054.84;5044300;28;20121;-73
2021/12/23 08:05:54;;;;;;;20.08;13.02;;;;;;;-0.86;95.03;101064.97;5037850;28;20041;-73
2021/12/23 08:08:20;;;;;;;21.02;11.52;;;;;;;-0.87;94.95;101060.72;5042241;28;20048;-73
2021/12/23 08:10:45;;;;;;;20.58;12.63;;;;;;;-0.81;94.85;101071.72;5041146;28;20083;-73
2021/12/23 08:13:11;;;;;;;22.20;11.90;;;;;;;-0.80;95.17;101055.25;5044140;28;20039;-73
2021/12/23 08:15:36;;;;;;;23.20;10.68;;;;;;;-0.74;94.64;101076.53;5038927;28;20657;-73
2021/12/23 08:18:02;;;;;;;19.63;11.98;;;;;;;-0.76;94.38;101074.91;5037419;28;20091;-73
2021/12/23 08:20:28;;;;;;;21.98;11.13;;;;;;;-1.05;94.35;101010.59;5043386;28;20040;-73
2021/12/23 08:22:54;;;;;;;21.15;11.85;;;;;;;-0.70;94.37;101061.66;5044306;28;20267;-74
2021/12/23 08:25:22;;;;;;;25.38;15.20;;;;;;;-0.76;94.21;101046.41;5044931;28;20120;-73
2021/12/23 08:27:47;;;;;;;20.30;12.40;;;;;;;-0.80;93.98;101040.53;5061469;28;20059;-73
2021/12/23 08:30:20;;;;;;;25.65;12.02;;;;;;;-0.84;94.16;101045.03;5034297;28;20060;-73
2021/12/23 08:32:47;;;;;;;25.17;12.45;;;;;;;-0.87;94.67;101024.44;5042142;28;20055;-73
2021/12/23 08:35:13;;;;;;;25.52;14.82;;;;;;;-0.90;94.62;101019.41;5040265;28;20022;-73
2021/12/23 08:37:40;;;;;;;20.90;11.18;;;;;;;-1.05;94.70;101015.75;5034627;28;20083;-73
2021/12/23 08:40:08;;;;;;;22.08;12.38;;;;;;;-0.93;94.78;101026.50;5034030;28;20107;-73
2021/12/23 08:42:35;;;;;;;17.90;11.13;;;;;;;-0.97;94.60;101023.19;5049956;28;20396;-73
2021/12/23 08:45:04;;;;;;;17.92;10.45;;;;;;;-0.96;94.56;101019.69;5035194;28;20029;-73
2021/12/23 08:47:30;;;;;;;30.30;17.90;;;;;;;-1.04;94.81;101021.81;5039606;28;20056;-73
2021/12/23 08:50:08;;;;;;;21.83;12.48;;;;;;;-1.19;94.53;100978.50;5079801;27;20806;-73
2021/12/23 08:52:34;;;;;;;24.73;13.60;;;;;;;-0.89;95.08;101018.50;5075043;28;20035;-73
2021/12/23 08:54:59;;;;;;;25.88;12.60;;;;;;;-0.95;94.59;101015.34;5072702;28;20020;-73
2021/12/23 08:57:25;;;;;;;28.05;15.35;;;;;;;-1.12;94.39;101003.19;5075495;28;20028;-73
2021/12/23 08:59:50;;;;;;;31.58;18.15;;;;;;;-1.11;94.63;101015.22;5027185;28;20020;-73
2021/12/23 09:02:16;;;;;;;20.48;10.85;;;;;;;-1.12;95.24;101019.56;5060685;28;20097;-73
2021/12/23 09:04:41;;;;;;;23.08;13.57;;;;;;;-1.14;95.51;101016.19;5072697;28;20032;-75
2021/12/23 09:07:08;;;;;;;24.50;13.00;;;;;;;-1.03;95.69;101010.53;5073638;28;20036;-74
2021/12/23 09:09:35;;;;;;;21.92;12.30;;;;;;;-1.22;95.62;100988.97;5063203;28;20024;-75
2021/12/23 09:12:02;;;;;;;26.95;13.57;;;;;;;-1.18;96.31;100982.75;5074100;28;20060;-74
2021/12/23 09:14:28;;;;;;;21.48;12.90;;;;;;;-1.02;96.22;101004.44;5061365;28;20028;-72
2021/12/23 09:16:54;;;;;;;24.92;14.68;;;;;;;-1.03;96.25;101000.16;5048312;28;20047;-75
2021/12/23 09:19:19;;;;;;;22.98;14.23;;;;;;;-1.09;96.33;100993.53;5057433;28;20557;-74
2021/12/23 09:21:45;;;;;;;28.83;16.55;;;;;;;-1.12;96.32;100987.66;5061180;28;20028;-74
2021/12/23 09:24:10;;;;;;;21.25;12.73;;;;;;;-1.01;96.56;100989.72;5060570;28;20498;-74
2021/12/23 09:26:46;;;;;;;26.85;14.27;;;;;;;-1.02;96.36;100981.13;5059374;28;20479;-74
2021/12/23 09:32:39;;;;;;;21.88;12.30;;;;;;;-0.98;96.59;100984.41;5056175;28;20541;-74
2021/12/23 09:34:43;;;;;;;26.17;14.52;;;;;;;-1.01;96.96;100969.84;5073691;28;20070;-74
2021/12/23 09:37:09;;;;;;;27.15;13.50;;;;;;;-0.96;96.77;100967.03;5063702;28;20027;-75
2021/12/23 09:39:34;;;;;;;22.38;12.65;;;;;;;-0.98;96.83;100961.06;5063369;28;20548;-76
2021/12/23 09:42:03;;;;;;;25.55;11.45;;;;;;;-0.98;97.03;100959.34;5094839;28;20102;-75
2021/12/23 09:44:29;;;;;;;23.17;13.85;;;;;;;-1.02;97.26;100952.63;5077723;28;20032;-75
2021/12/23 09:46:57;;;;;;;25.52;13.15;;;;;;;-0.96;97.17;100949.72;5092958;28;20467;-74
2021/12/23 09:49:24;;;;;;;29.10;12.80;;;;;;;-0.93;97.54;100957.38;5092067;28;20038;-75
2021/12/23 09:51:50;;;;;;;22.35;12.38;;;;;;;-0.86;97.56;100952.72;5097492;28;20055;-75
2021/12/23 09:54:17;;;;;;;26.88;13.68;;;;;;;-1.08;97.40;100922.66;5058880;28;20050;-75
2021/12/23 09:56:42;;;;;;;26.42;13.48;;;;;;;-1.13;97.78;100919.47;5094145;28;20114;-76
2021/12/23 09:59:09;;;;;;;28.60;15.23;;;;;;;-1.12;98.47;100915.13;5065534;28;20052;-75
2021/12/23 10:01:35;;;;;;;31.83;16.45;;;;;;;-1.06;98.22;100927.78;5064633;28;20086;-77
2021/12/23 10:04:01;;;;;;;25.75;15.88;;;;;;;-1.13;99.08;100905.66;5063077;28;20048;-75
2021/12/23 10:06:26;;;;;;;24.30;12.85;;;;;;;-1.09;99.26;100914.97;5064795;28;20060;-75
2021/12/23 10:08:53;;;;;;;22.17;13.23;;;;;;;-1.49;99.42;100842.63;5077986;28;20033;-75
2021/12/23 10:12:02;;;;;;;28.85;13.70;;;;;;;-1.11;100.00;100898.66;5064884;28;20016;-75
2021/12/23 10:31:07;;;;;;;28.48;14.23;;;;;;;-1.26;100.00;100861.41;5001682;28;20053;-74
2021/12/23 10:33:47;;;;;;;33.15;16.00;;;;;;;-1.22;100.00;100846.53;5005555;28;20045;-74
2021/12/23 10:38:45;;;;;;;36.13;17.63;;;;;;;-1.09;100.00;100873.53;5005697;28;20040;-74
2021/12/23 10:41:17;;;;;;;38.75;18.40;;;;;;;-1.09;100.00;100865.75;5007017;28;20077;-74
2021/12/23 10:43:53;;;;;;;42.25;21.40;;;;;;;-1.10;100.00;100858.91;4988041;28;20033;-74
2021/12/23 10:46:29;;;;;;;33.15;18.25;;;;;;;-1.14;100.00;100854.78;5004164;28;20077;-74
2021/12/23 10:49:48;;;;;;;38.33;17.50;;;;;;;-1.09;100.00;100852.81;5005377;28;20069;-74
2021/12/23 10:51:57;;;;;;;33.42;15.35;;;;;;;-1.04;100.00;100841.31;5071675;28;20044;-74
2021/12/23 11:00:20;;;;;;;58.30;25.15;;;;;;;-1.08;100.00;100813.03;5081667;28;20366;-73
2021/12/23 11:03:03;;;;;;;;;;;;;;;-1.08;100.00;100813.03;5081346;28;20032;-72
2021/12/23 11:05:34;;;;;;;42.75;18.63;;;;;;;-1.09;100.00;100786.31;5082339;28;20587;-75
2021/12/23 11:39:45;;;;;;;54.97;22.67;;;;;;;-1.20;100.00;100741.13;4983257;28;20124;-75
2021/12/23 11:42:30;;;;;;;55.03;23.42;;;;;;;-1.12;100.00;100751.94;4967957;28;20046;-74
2021/12/23 11:44:56;;;;;;;49.35;21.88;;;;;;;-1.20;100.00;100736.78;4971438;28;20084;-74
2021/12/23 11:47:24;;;;;;;57.85;25.30;;;;;;;-1.06;100.00;100747.28;4966189;28;20442;-74
2021/12/23 11:49:50;;;;;;;51.80;20.50;;;;;;;-1.02;100.00;100750.56;4983413;28;20081;-74
2021/12/23 11:52:16;;;;;;;59.35;24.27;;;;;;;-0.98;100.00;100748.66;4985328;28;20038;-74
2021/12/23 11:54:44;;;;;;;50.05;21.95;;;;;;;-0.95;100.00;100749.34;4983835;28;20040;-74
2021/12/23 11:57:22;;;;;;;49.83;21.80;;;;;;;-0.87;100.00;100757.56;5059918;28;20111;-74
2021/12/23 12:00:13;;;;;;;52.00;24.17;;;;;;;-1.00;100.00;100753.06;5078389;28;20018;-74
2021/12/23 12:02:39;;;;;;;56.05;23.67;;;;;;;-1.02;100.00;100744.53;5064984;28;20028;-74
2021/12/23 12:05:12;;;;;;;48.78;22.75;;;;;;;-0.99;100.00;100745.22;5045659;28;20043;-74
2021/12/23 12:07:41;;;;;;;59.10;25.13;;;;;;;-1.01;100.00;100741.88;5080159;28;20026;-74
2021/12/23 12:10:17;;;;;;;42.78;20.83;;;;;;;-1.04;100.00;100716.97;5078955;28;20173;-74
2021/12/23 12:12:59;;;;;;;50.92;23.83;;;;;;;-1.07;100.00;100718.88;5082946;28;20021;-74
2021/12/23 12:15:47;;;;;;;62.40;26.42;;;;;;;-1.10;100.00;100716.44;5080928;28;20525;-74